Time;durP1;ratioP1;P1;durP2;ratioP2;P2;SDS_P1;SDS_P2;PMS_P1;PMS_P2;Temp;Humidity;BMP_temperature;BMP_pressure;BME280_temperature;BME280_humidity;BME280_pressure;Samples;Min_cycle;Max_cycle;Signal;HPM_P1;HPM_P2
2022/04/27 00:00:31;;;;;;;13.40;9.77;;;7.80;99.90;;;;;;4970622;28;20123;-85
2022/04/27 00:02:57;;;;;;;15.82;10.68;;;7.80;99.90;;;;;;4953376;28;20114;-85
2022/04/27 00:05:27;;;;;;;15.75;9.23;;;7.80;99.90;;;;;;4965869;28;20035;-86
2022/04/27 00:07:52;;;;;;;14.23;9.85;;;7.80;99.90;;;;;;4945032;28;20031;-86
2022/04/27 00:10:21;;;;;;;16.48;10.20;;;7.80;99.90;;;;;;4948969;28;20034;-85
2022/04/27 00:12:48;;;;;;;15.00;9.45;;;7.80;99.90;;;;;;4986960;28;20676;-86
2022/04/27 00:15:14;;;;;;;17.38;11.25;;;7.80;99.90;;;;;;4955705;28;20530;-86
2022/04/27 00:17:40;;;;;;;18.48;11.55;;;7.80;99.90;;;;;;4969087;28;20027;-86
2022/04/27 00:20:07;;;;;;;15.95;11.05;;;7.70;99.90;;;;;;4966466;28;20030;-86
2022/04/27 00:22:34;;;;;;;17.90;12.23;;;7.70;99.90;;;;;;4966811;28;20058;-86
2022/04/27 00:25:00;;;;;;;17.35;11.25;;;7.70;99.90;;;;;;4966661;28;20114;-86
2022/04/27 00:27:27;;;;;;;17.02;11.35;;;7.80;99.90;;;;;;4967907;28;20054;-85
2022/04/27 00:29:53;;;;;;;19.98;12.02;;;7.80;99.90;;;;;;4971062;28;20030;-86
2022/04/27 00:32:22;;;;;;;15.77;10.05;;;7.80;99.90;;;;;;4966321;28;20418;-79
2022/04/27 00:34:47;;;;;;;16.80;11.27;;;7.80;99.90;;;;;;4957546;28;20039;-79
2022/04/27 00:37:13;;;;;;;16.80;10.20;;;7.80;99.90;;;;;;4964300;28;20033;-79
2022/04/27 00:39:39;;;;;;;16.45;10.48;;;7.80;99.90;;;;;;4955639;28;20685;-79
2022/04/27 00:42:18;;;;;;;16.17;10.60;;;7.80;99.90;;;;;;4969460;28;20045;-79
2022/04/27 00:44:45;;;;;;;18.38;11.55;;;8.00;99.90;;;;;;4970948;28;20138;-79
2022/04/27 00:47:11;;;;;;;17.35;11.45;;;8.00;99.90;;;;;;4958112;28;20074;-79
2022/04/27 00:49:41;;;;;;;20.05;9.93;;;7.90;99.90;;;;;;4967873;28;20030;-79
2022/04/27 00:52:12;;;;;;;15.20;10.38;;;7.90;99.90;;;;;;4965304;28;20703;-79
2022/04/27 00:54:39;;;;;;;28.45;10.13;;;7.90;99.90;;;;;;4967740;28;20105;-79
2022/04/27 00:57:06;;;;;;;19.02;10.55;;;7.90;99.90;;;;;;4969664;28;20041;-85
2022/04/27 00:59:31;;;;;;;20.63;11.38;;;7.90;99.90;;;;;;4969504;28;20022;-86
2022/04/27 01:01:57;;;;;;;18.40;12.70;;;7.80;99.90;;;;;;4969241;28;20459;-86
2022/04/27 01:04:23;;;;;;;19.75;12.35;;;7.80;99.90;;;;;;4969042;28;20027;-86
2022/04/27 01:06:49;;;;;;;17.20;11.40;;;7.70;99.90;;;;;;4981873;28;20067;-86
2022/04/27 01:09:17;;;;;;;18.08;12.25;;;7.70;99.90;;;;;;4970231;28;20237;-86
2022/04/27 01:11:43;;;;;;;18.13;10.80;;;7.80;99.90;;;;;;4964948;28;20082;-85
2022/04/27 01:14:09;;;;;;;20.73;11.27;;;7.70;99.90;;;;;;4952292;28;20027;-86
2022/04/27 01:16:34;;;;;;;17.15;11.43;;;7.80;99.90;;;;;;4969285;28;20114;-86
2022/04/27 01:19:00;;;;;;;17.30;11.40;;;7.80;99.90;;;;;;4969614;28;20483;-86
2022/04/27 01:21:26;;;;;;;16.85;10.77;;;7.80;99.90;;;;;;4971571;28;20390;-86
2022/04/27 01:23:53;;;;;;;17.52;10.25;;;7.90;99.90;;;;;;4967675;28;20089;-86
2022/04/27 01:26:18;;;;;;;18.92;13.05;;;7.90;99.90;;;;;;4986470;28;20026;-86
2022/04/27 01:28:48;;;;;;;19.48;11.73;;;7.90;99.90;;;;;;4981837;28;20038;-86
2022/04/27 01:31:14;;;;;;;18.02;11.10;;;7.90;99.90;;;;;;4961178;28;20042;-79
2022/04/27 01:33:40;;;;;;;19.67;11.77;;;7.90;99.90;;;;;;4969466;28;20026;-79
2022/04/27 01:36:08;;;;;;;19.23;10.68;;;7.80;99.90;;;;;;4969301;28;20050;-79
2022/04/27 01:38:35;;;;;;;19.23;11.13;;;7.80;99.90;;;;;;4968987;28;20783;-79
2022/04/27 01:41:03;;;;;;;20.80;12.38;;;7.90;99.90;;;;;;4954330;28;20031;-79
2022/04/27 01:43:29;;;;;;;16.85;12.05;;;7.90;99.90;;;;;;4949967;28;20125;-79
2022/04/27 01:45:56;;;;;;;19.13;12.57;;;8.00;99.90;;;;;;4963043;28;20062;-79
2022/04/27 01:48:22;;;;;;;17.17;12.07;;;8.00;99.90;;;;;;4969633;28;20502;-86
2022/04/27 01:50:49;;;;;;;19.20;12.00;;;8.10;99.90;;;;;;4970090;28;20459;-86
2022/04/27 01:55:59;;;;;;;23.30;12.82;;;8.00;99.90;;;;;;4968578;28;20038;-86
2022/04/27 01:58:25;;;;;;;20.13;12.82;;;8.00;99.90;;;;;;4969645;28;20367;-86
2022/04/27 02:00:51;;;;;;;21.70;14.05;;;7.90;99.90;;;;;;4966125;28;20278;-86
2022/04/27 02:03:18;;;;;;;19.50;11.88;;;7.90;99.90;;;;;;4969505;28;20102;-86
2022/04/27 02:05:44;;;;;;;19.63;13.07;;;7.80;99.90;;;;;;4969074;28;20062;-85
2022/04/27 02:08:10;;;;;;;19.08;11.48;;;7.80;99.90;;;;;;4969041;28;20668;-86
2022/04/27 02:10:37;;;;;;;18.27;11.27;;;7.80;99.90;;;;;;4940640;28;20037;-86
2022/04/27 02:13:07;;;;;;;19.83;12.27;;;7.60;99.90;;;;;;4969687;28;20031;-86
2022/04/27 02:15:33;;;;;;;23.15;11.63;;;7.50;99.90;;;;;;4967989;28;20023;-85
2022/04/27 02:18:00;;;;;;;18.98;11.75;;;7.40;99.90;;;;;;4954744;28;20457;-86
2022/04/27 02:20:26;;;;;;;17.63;11.60;;;7.30;99.90;;;;;;4966227;28;20502;-86
2022/04/27 02:22:52;;;;;;;16.60;11.23;;;7.30;99.90;;;;;;4969271;28;20073;-86
2022/04/27 02:25:18;;;;;;;19.13;12.27;;;7.10;99.90;;;;;;4981520;28;20661;-85
2022/04/27 02:27:44;;;;;;;19.08;11.63;;;7.10;99.90;;;;;;4967171;28;20026;-86
2022/04/27 02:30:10;;;;;;;18.15;11.68;;;7.10;99.90;;;;;;4954111;28;20043;-85
2022/04/27 02:32:37;;;;;;;25.10;13.18;;;7.10;99.90;;;;;;4970927;28;20204;-85
2022/04/27 02:35:04;;;;;;;18.90;11.85;;;7.10;99.90;;;;;;4971436;28;20057;-85
2022/04/27 02:37:32;;;;;;;17.08;11.07;;;7.10;99.90;;;;;;4986714;28;20066;-86
2022/04/27 02:39:58;;;;;;;16.42;11.23;;;7.10;99.90;;;;;;4970049;28;20034;-85
2022/04/27 02:42:24;;;;;;;16.85;10.95;;;7.20;99.90;;;;;;4965808;28;20055;-79
2022/04/27 02:44:50;;;;;;;18.20;10.98;;;7.30;99.90;;;;;;4971730;28;20513;-79
2022/04/27 02:47:16;;;;;;;18.15;11.43;;;7.30;99.90;;;;;;4978832;28;20067;-79
2022/04/27 02:52:30;;;;;;;20.63;12.68;;;7.40;99.90;;;;;;4958154;28;20046;-79
2022/04/27 02:54:56;;;;;;;23.90;13.52;;;7.40;99.90;;;;;;4968054;28;20117;-79
2022/04/27 02:57:22;;;;;;;20.58;13.13;;;7.30;99.90;;;;;;4977199;28;20062;-80
2022/04/27 02:59:48;;;;;;;20.50;12.65;;;7.40;99.90;;;;;;4970547;28;20027;-79
2022/04/27 03:02:14;;;;;;;21.20;11.38;;;7.50;99.90;;;;;;4970614;28;20031;-79
2022/04/27 03:04:40;;;;;;;19.90;12.70;;;7.50;99.90;;;;;;4971624;28;20050;-79
2022/04/27 03:07:06;;;;;;;17.95;11.80;;;7.60;99.90;;;;;;4960248;28;20023;-79
2022/04/27 03:09:32;;;;;;;20.95;13.43;;;7.70;99.90;;;;;;4968508;28;20134;-79
2022/04/27 03:11:58;;;;;;;17.33;11.23;;;7.80;99.90;;;;;;4963642;28;20697;-79
2022/04/27 03:14:24;;;;;;;20.02;12.45;;;7.80;99.90;;;;;;4969573;28;20023;-79
2022/04/27 03:16:52;;;;;;;20.55;13.57;;;7.80;99.90;;;;;;4966491;28;20494;-79
2022/04/27 03:19:18;;;;;;;19.48;13.38;;;7.70;99.90;;;;;;4965709;28;20026;-79
2022/04/27 03:21:44;;;;;;;20.08;12.30;;;7.70;99.90;;;;;;4972138;28;20027;-79
2022/04/27 03:24:10;;;;;;;20.52;11.75;;;7.70;99.90;;;;;;4970109;28;20114;-79
2022/04/27 03:26:36;;;;;;;22.25;14.38;;;7.70;99.90;;;;;;4967746;28;20033;-79
2022/04/27 03:29:03;;;;;;;20.05;12.70;;;7.60;99.90;;;;;;4969669;28;20114;-79
2022/04/27 03:31:29;;;;;;;19.77;11.90;;;7.60;99.90;;;;;;4964403;28;20121;-79
2022/04/27 03:34:01;;;;;;;22.48;13.05;;;7.70;99.90;;;;;;4965243;28;20042;-86
2022/04/27 03:36:27;;;;;;;22.48;11.82;;;7.80;99.90;;;;;;4956253;28;20548;-85
2022/04/27 03:38:53;;;;;;;21.70;12.48;;;7.60;99.90;;;;;;4961197;28;20027;-86
2022/04/27 03:41:22;;;;;;;18.30;11.20;;;7.70;99.90;;;;;;4971988;28;20035;-85
2022/04/27 03:43:48;;;;;;;20.02;11.55;;;7.70;99.90;;;;;;4967590;28;20074;-79
2022/04/27 03:46:14;;;;;;;23.73;15.65;;;7.70;99.90;;;;;;4976513;28;20490;-79
2022/04/27 03:48:40;;;;;;;21.95;12.40;;;7.80;99.90;;;;;;4967839;28;20058;-79
2022/04/27 03:51:06;;;;;;;23.00;14.05;;;7.80;99.90;;;;;;4967945;28;20105;-79
2022/04/27 03:53:32;;;;;;;18.27;12.23;;;7.70;99.90;;;;;;4970656;28;20320;-79
2022/04/27 03:55:57;;;;;;;23.10;12.63;;;7.70;99.90;;;;;;4969774;28;20226;-79
2022/04/27 03:58:23;;;;;;;20.45;12.77;;;7.80;99.90;;;;;;4967092;28;20050;-79
2022/04/27 04:00:49;;;;;;;22.40;12.27;;;7.70;99.90;;;;;;4984995;28;20372;-79
2022/04/27 04:03:14;;;;;;;19.45;12.25;;;7.60;99.90;;;;;;4969437;28;20402;-79
2022/04/27 04:05:41;;;;;;;18.17;12.07;;;7.60;99.90;;;;;;4966347;28;20122;-79
2022/04/27 04:08:07;;;;;;;20.48;12.43;;;7.70;99.90;;;;;;4973385;28;20061;-79
2022/04/27 04:10:33;;;;;;;19.67;11.93;;;7.70;99.90;;;;;;4968367;28;20417;-79
2022/04/27 04:12:59;;;;;;;22.85;11.82;;;7.70;99.90;;;;;;4968086;28;20054;-79
2022/04/27 04:15:25;;;;;;;18.55;11.93;;;7.70;99.90;;;;;;4969547;28;20023;-79
2022/04/27 04:17:50;;;;;;;20.50;11.75;;;7.70;99.90;;;;;;4961868;28;20790;-79
2022/04/27 04:20:18;;;;;;;18.90;11.43;;;7.70;99.90;;;;;;4969427;28;20031;-79
2022/04/27 04:22:45;;;;;;;20.40;13.07;;;7.70;99.90;;;;;;4969838;28;20113;-78
2022/04/27 04:30:40;;;;;;;99.10;51.60;;;7.80;99.90;;;;;;4944729;28;20042;-79
2022/04/27 04:33:06;;;;;;;107.15;55.30;;;7.80;99.90;;;;;;4965168;28;20058;-79
2022/04/27 04:35:32;;;;;;;46.72;28.08;;;7.70;99.90;;;;;;4972489;28;20062;-79
2022/04/27 04:37:57;;;;;;;20.58;13.18;;;7.80;99.90;;;;;;4967937;28;20122;-79
2022/04/27 04:40:23;;;;;;;20.85;12.52;;;7.90;99.90;;;;;;4968279;28;20043;-79
2022/04/27 04:42:49;;;;;;;22.30;11.60;;;8.00;99.90;;;;;;4957136;28;20049;-78
2022/04/27 04:45:14;;;;;;;18.67;11.57;;;8.00;99.90;;;;;;4969339;28;20653;-78
2022/04/27 04:47:42;;;;;;;22.08;12.23;;;8.00;99.90;;;;;;4969423;28;20220;-85
2022/04/27 04:50:09;;;;;;;21.20;12.00;;;7.90;99.90;;;;;;4983291;28;20030;-84
2022/04/27 04:52:34;;;;;;;17.88;11.20;;;8.00;99.90;;;;;;4970538;28;20031;-84
2022/04/27 04:55:00;;;;;;;23.10;12.65;;;8.10;99.90;;;;;;4963532;28;20031;-84
2022/04/27 04:57:26;;;;;;;19.70;11.35;;;8.10;99.90;;;;;;4964171;28;20023;-84
2022/04/27 04:59:51;;;;;;;18.80;11.50;;;8.20;99.90;;;;;;4966351;28;20475;-84
2022/04/27 05:02:17;;;;;;;19.80;12.63;;;8.30;99.90;;;;;;4959419;28;20037;-84
2022/04/27 05:04:42;;;;;;;22.73;13.05;;;8.10;99.90;;;;;;4970003;28;20331;-83
2022/04/27 05:07:08;;;;;;;21.63;11.05;;;8.10;99.90;;;;;;4984565;28;20089;-83
2022/04/27 05:09:34;;;;;;;17.70;11.18;;;8.30;99.90;;;;;;4970765;28;20393;-83
2022/04/27 05:12:00;;;;;;;19.13;11.98;;;8.50;99.90;;;;;;4960891;28;20171;-83
2022/04/27 05:14:25;;;;;;;18.23;10.52;;;8.60;99.90;;;;;;4951018;28;20126;-84
2022/04/27 05:16:51;;;;;;;20.08;13.35;;;8.60;99.90;;;;;;4952551;28;20062;-84
2022/04/27 05:19:17;;;;;;;19.27;11.43;;;8.60;99.90;;;;;;4952817;28;20035;-84
2022/04/27 05:21:42;;;;;;;20.05;13.40;;;8.70;99.90;;;;;;4958848;28;20367;-84
2022/04/27 05:24:08;;;;;;;20.38;11.65;;;8.60;99.90;;;;;;4954216;28;20094;-84
2022/04/27 05:26:33;;;;;;;19.70;11.90;;;8.50;99.90;;;;;;4967533;28;20330;-79
2022/04/27 05:31:55;;;;;;;19.42;13.85;;;8.50;99.90;;;;;;4966546;28;20041;-79
2022/04/27 05:34:21;;;;;;;25.02;13.70;;;8.50;99.90;;;;;;4965121;28;20557;-79
2022/04/27 05:36:47;;;;;;;19.42;12.57;;;8.40;99.90;;;;;;4951475;28;20035;-79
2022/04/27 05:39:13;;;;;;;20.83;12.60;;;8.30;99.90;;;;;;4966184;28;20039;-80
2022/04/27 05:41:39;;;;;;;19.38;12.43;;;8.30;99.90;;;;;;4969354;28;20056;-80
2022/04/27 05:44:09;;;;;;;23.00;13.75;;;8.40;99.90;;;;;;4965396;28;20130;-80
2022/04/27 05:46:38;;;;;;;23.08;12.65;;;8.30;99.90;;;;;;4968020;28;20035;-80
2022/04/27 05:49:04;;;;;;;25.33;13.38;;;8.40;99.90;;;;;;4965789;28;20031;-79
2022/04/27 05:51:30;;;;;;;25.83;16.55;;;8.50;99.90;;;;;;4951637;28;20058;-78
2022/04/27 05:53:56;;;;;;;23.92;14.32;;;8.60;99.90;;;;;;4964609;28;20039;-79
2022/04/27 05:56:23;;;;;;;24.95;14.07;;;8.50;99.90;;;;;;4967411;28;20514;-79
2022/04/27 05:58:52;;;;;;;22.27;14.27;;;8.60;99.90;;;;;;4961233;28;20515;-79
2022/04/27 06:01:18;;;;;;;24.02;14.73;;;8.70;99.90;;;;;;4943229;28;20122;-79
2022/04/27 06:03:44;;;;;;;25.63;14.52;;;8.70;99.90;;;;;;4971755;28;20034;-79
2022/04/27 06:06:10;;;;;;;21.95;13.55;;;8.90;99.90;;;;;;4971665;28;20053;-79
2022/04/27 06:08:36;;;;;;;21.85;14.52;;;9.10;99.90;;;;;;4971307;28;20039;-79
2022/04/27 06:11:02;;;;;;;21.95;14.18;;;9.20;99.90;;;;;;4972257;28;20031;-84
2022/04/27 06:13:27;;;;;;;22.50;14.93;;;9.20;99.90;;;;;;4972288;28;20035;-85
2022/04/27 06:15:53;;;;;;;21.60;13.68;;;9.00;99.90;;;;;;4954458;28;20082;-85
2022/04/27 06:18:19;;;;;;;25.33;15.73;;;9.10;99.90;;;;;;4970654;28;20058;-85
2022/04/27 06:20:44;;;;;;;24.02;14.07;;;9.40;99.90;;;;;;4967371;28;20141;-85
2022/04/27 06:23:10;;;;;;;24.00;14.05;;;9.60;99.90;;;;;;4977467;28;20113;-85
2022/04/27 06:25:39;;;;;;;24.55;14.77;;;9.70;99.90;;;;;;4972178;28;20041;-85
2022/04/27 06:28:05;;;;;;;24.23;15.02;;;9.70;99.90;;;;;;4969716;28;20038;-85
2022/04/27 06:30:32;;;;;;;22.38;14.75;;;9.70;99.90;;;;;;4978350;28;20038;-85
2022/04/27 06:32:58;;;;;;;25.10;15.95;;;9.60;99.90;;;;;;4971656;28;20875;-85
2022/04/27 06:35:23;;;;;;;24.05;14.95;;;9.70;99.90;;;;;;4971182;28;20099;-85
2022/04/27 06:37:49;;;;;;;24.88;14.35;;;9.70;99.90;;;;;;4969171;28;20050;-85
2022/04/27 06:40:15;;;;;;;24.75;14.82;;;9.70;99.90;;;;;;4952369;29;20054;-85
2022/04/27 06:42:44;;;;;;;18.27;13.02;;;9.90;99.90;;;;;;4958679;28;20041;-85
2022/04/27 06:45:11;;;;;;;24.42;13.52;;;10.00;99.90;;;;;;4948242;28;20047;-86
2022/04/27 06:47:36;;;;;;;20.30;13.23;;;10.10;99.90;;;;;;4963144;28;20498;-85
2022/04/27 06:50:02;;;;;;;19.95;11.45;;;10.10;99.90;;;;;;4971357;28;20118;-85
2022/04/27 06:52:28;;;;;;;21.88;14.50;;;10.20;99.90;;;;;;4972181;28;20031;-79
2022/04/27 06:54:54;;;;;;;22.13;13.07;;;10.50;99.90;;;;;;4970937;28;20031;-79
2022/04/27 06:57:19;;;;;;;20.40;12.57;;;10.40;99.90;;;;;;4971721;28;20051;-79
2022/04/27 06:59:45;;;;;;;19.23;12.48;;;10.20;99.90;;;;;;4975757;28;20493;-79
2022/04/27 07:02:13;;;;;;;17.92;11.57;;;10.10;99.90;;;;;;4961226;28;20102;-85
2022/04/27 07:08:01;;;;;;;21.08;12.63;;;10.60;99.90;;;;;;4972390;28;20433;-84
2022/04/27 07:10:36;;;;;;;16.70;10.80;;;11.10;99.90;;;;;;4971131;28;20030;-85
2022/04/27 07:13:02;;;;;;;17.40;10.00;;;11.30;99.90;;;;;;4943508;28;20041;-84
2022/04/27 07:15:28;;;;;;;15.35;9.95;;;11.10;99.90;;;;;;4971571;28;20022;-85
2022/04/27 07:17:53;;;;;;;17.40;9.82;;;11.10;99.90;;;;;;4971633;28;20034;-85
2022/04/27 07:20:19;;;;;;;13.68;8.60;;;11.40;99.90;;;;;;4971825;28;20225;-85
2022/04/27 07:22:45;;;;;;;15.57;10.13;;;11.40;99.90;;;;;;4971321;28;20035;-85
2022/04/27 07:25:12;;;;;;;15.13;9.88;;;11.50;99.90;;;;;;4954185;28;20027;-85
2022/04/27 07:27:43;;;;;;;15.98;9.15;;;11.40;99.90;;;;;;4947644;28;20043;-85
2022/04/27 07:30:10;;;;;;;16.25;11.13;;;11.40;99.90;;;;;;4958315;28;20037;-85
2022/04/27 07:32:35;;;;;;;15.52;10.43;;;10.90;99.90;;;;;;4971423;28;20093;-85
2022/04/27 07:35:01;;;;;;;17.13;10.93;;;10.90;99.90;;;;;;4970165;28;20026;-85
2022/04/27 07:37:26;;;;;;;17.27;10.55;;;10.90;99.90;;;;;;4971502;28;20618;-84
2022/04/27 07:39:52;;;;;;;15.10;9.48;;;11.00;99.90;;;;;;4959369;28;20034;-85
2022/04/27 07:42:18;;;;;;;13.68;8.98;;;11.10;99.90;;;;;;4995657;28;20035;-84
2022/04/27 07:44:44;;;;;;;13.05;8.73;;;11.10;99.90;;;;;;4991263;28;20054;-84
2022/04/27 07:47:09;;;;;;;13.88;10.05;;;11.10;99.90;;;;;;4988347;28;20043;-86
2022/04/27 07:49:35;;;;;;;13.30;8.13;;;11.30;99.90;;;;;;4980673;28;20566;-85
2022/04/27 07:52:01;;;;;;;16.83;10.77;;;11.10;99.90;;;;;;4969327;28;20033;-85
2022/04/27 07:54:26;;;;;;;19.52;11.48;;;11.00;99.90;;;;;;4973096;28;20382;-85
2022/04/27 07:56:52;;;;;;;18.10;11.32;;;11.20;99.90;;;;;;4963394;28;20038;-85
2022/04/27 07:59:18;;;;;;;16.73;10.70;;;11.00;99.90;;;;;;4973863;28;20034;-85
2022/04/27 08:01:43;;;;;;;16.63;10.50;;;11.10;99.90;;;;;;4969474;28;20027;-85
2022/04/27 08:04:09;;;;;;;15.90;10.80;;;11.30;99.90;;;;;;4967713;28;20446;-85
2022/04/27 08:06:36;;;;;;;15.23;10.07;;;11.40;99.90;;;;;;4968076;28;20045;-85
2022/04/27 08:09:02;;;;;;;15.38;9.10;;;11.40;99.90;;;;;;4970305;28;20031;-86
2022/04/27 08:11:28;;;;;;;14.80;9.13;;;11.50;99.90;;;;;;4970083;28;20038;-86
2022/04/27 08:13:53;;;;;;;14.93;8.98;;;11.50;99.90;;;;;;4969462;28;20398;-86
2022/04/27 08:16:19;;;;;;;12.23;8.32;;;11.70;99.90;;;;;;4964764;28;20034;-86
2022/04/27 08:18:45;;;;;;;12.77;8.48;;;11.70;99.90;;;;;;4956021;28;20415;-86
2022/04/27 08:21:14;;;;;;;12.63;7.75;;;11.90;99.90;;;;;;4970240;28;20030;-86
2022/04/27 08:23:40;;;;;;;10.90;7.32;;;12.20;99.90;;;;;;4969592;28;20035;-86
2022/04/27 08:26:08;;;;;;;12.68;7.55;;;12.40;99.90;;;;;;4967582;28;20069;-85
2022/04/27 08:28:37;;;;;;;12.27;8.00;;;12.30;99.90;;;;;;4967829;28;20479;-85
2022/04/27 08:31:03;;;;;;;11.50;7.53;;;12.20;99.90;;;;;;4968908;28;20039;-79
2022/04/27 08:33:29;;;;;;;13.43;8.10;;;12.70;99.90;;;;;;4970540;28;20038;-86
2022/04/27 08:35:57;;;;;;;13.68;8.50;;;12.60;99.90;;;;;;4971056;28;20082;-86
2022/04/27 08:38:23;;;;;;;13.13;7.88;;;12.40;99.90;;;;;;4976736;28;20106;-86
2022/04/27 08:40:49;;;;;;;11.57;6.97;;;12.10;99.90;;;;;;4960659;28;20113;-86
2022/04/27 08:43:15;;;;;;;11.15;6.75;;;11.70;99.90;;;;;;4971957;28;20043;-86
2022/04/27 08:45:43;;;;;;;13.93;7.75;;;11.90;99.90;;;;;;4979739;28;21494;-87
2022/04/27 08:48:10;;;;;;;10.15;7.00;;;12.10;99.90;;;;;;4957465;28;20422;-87
2022/04/27 08:50:37;;;;;;;10.75;6.80;;;13.10;99.90;;;;;;4971160;28;20041;-87
2022/04/27 08:53:03;;;;;;;8.95;5.78;;;13.60;99.90;;;;;;4969932;28;20474;-87
2022/04/27 08:55:29;;;;;;;9.45;5.78;;;13.60;99.90;;;;;;4969441;28;20053;-87
2022/04/27 08:58:07;;;;;;;8.98;5.78;;;13.40;99.90;;;;;;4966884;28;20019;-87
2022/04/27 09:00:32;;;;;;;9.73;5.95;;;13.70;99.90;;;;;;4966291;28;20449;-87
2022/04/27 09:03:24;;;;;;;7.30;5.05;;;13.80;99.90;;;;;;4967891;28;20058;-87
2022/04/27 09:05:58;;;;;;;13.23;8.15;;;13.60;99.90;;;;;;4941555;29;20423;-87
2022/04/27 09:08:25;;;;;;;11.00;7.03;;;13.60;99.90;;;;;;4956723;28;20031;-86
2022/04/27 09:11:17;;;;;;;11.15;7.50;;;13.50;99.90;;;;;;4966518;28;20508;-87
2022/04/27 09:13:51;;;;;;;11.13;7.75;;;13.10;99.90;;;;;;4960517;28;20047;-87
2022/04/27 09:16:18;;;;;;;12.13;6.50;;;13.10;99.90;;;;;;4972357;28;20226;-87
2022/04/27 09:22:06;;;;;;;10.02;6.25;;;13.00;99.90;;;;;;4948960;28;20063;-86
2022/04/27 09:24:52;;;;;;;8.23;5.30;;;13.10;99.90;;;;;;4935096;28;20039;-86
2022/04/27 09:27:20;;;;;;;9.40;5.43;;;13.60;99.90;;;;;;4968826;28;20027;-87
2022/04/27 09:29:56;;;;;;;9.48;6.05;;;13.20;99.90;;;;;;4970061;28;20039;-88
2022/04/27 09:32:22;;;;;;;9.10;5.60;;;13.40;98.70;;;;;;4970526;28;20031;-89
2022/04/27 09:34:48;;;;;;;8.90;5.60;;;13.20;99.90;;;;;;4977746;28;20025;-89
2022/04/27 09:37:22;;;;;;;9.70;6.78;;;13.00;99.90;;;;;;4972569;28;20035;-89
2022/04/27 09:40:04;;;;;;;9.68;6.50;;;13.20;99.90;;;;;;4975169;28;20486;-89
2022/04/27 09:42:32;;;;;;;9.45;6.65;;;12.90;99.90;;;;;;4965240;28;20058;-89
2022/04/27 09:45:20;;;;;;;9.68;6.28;;;12.90;99.90;;;;;;4973511;28;20129;-88
2022/04/27 09:48:01;;;;;;;8.85;5.55;;;12.40;99.90;;;;;;4971656;28;20030;-89
2022/04/27 09:50:44;;;;;;;9.85;6.70;;;12.60;99.90;;;;;;4979709;28;20058;-88
2022/04/27 09:53:11;;;;;;;9.60;6.55;;;12.40;99.90;;;;;;4954415;28;20395;-88
2022/04/27 09:55:43;;;;;;;11.02;6.90;;;12.40;99.90;;;;;;4969925;28;20034;-89
2022/04/27 09:58:13;;;;;;;8.32;6.38;;;12.40;99.90;;;;;;4958715;28;20910;-89
2022/04/27 10:00:43;;;;;;;9.00;7.03;;;12.50;99.90;;;;;;4972436;28;20038;-88
2022/04/27 10:03:13;;;;;;;8.50;6.22;;;12.20;99.90;;;;;;4963872;28;20034;-81
2022/04/27 10:05:40;;;;;;;10.23;6.68;;;12.50;99.90;;;;;;4972919;28;20383;-83
2022/04/27 10:08:08;;;;;;;9.15;6.40;;;12.40;99.90;;;;;;4972317;28;20063;-83
2022/04/27 10:10:35;;;;;;;8.13;5.82;;;12.30;98.30;;;;;;4942978;28;20114;-83
2022/04/27 10:13:02;;;;;;;6.28;4.50;;;12.20;96.10;;;;;;4972538;28;20500;-83
2022/04/27 10:15:29;;;;;;;8.02;6.00;;;12.30;95.40;;;;;;4959867;28;20047;-83
2022/04/27 10:17:55;;;;;;;8.48;5.57;;;12.60;99.90;;;;;;4930558;28;20553;-83
2022/04/27 10:20:28;;;;;;;8.35;5.63;;;12.60;99.90;;;;;;4977081;28;20053;-83
2022/04/27 10:23:31;;;;;;;7.43;5.55;;;12.50;93.60;;;;;;4971047;28;20035;-82
2022/04/27 10:26:16;;;;;;;11.40;5.97;;;12.50;97.30;;;;;;4968565;28;20067;-83
2022/04/27 10:28:48;;;;;;;9.75;6.72;;;13.00;99.90;;;;;;4973115;28;20345;-83
2022/04/27 10:31:40;;;;;;;9.10;6.82;;;12.90;99.90;;;;;;4972354;28;20402;-83
2022/04/27 10:34:17;;;;;;;10.98;7.38;;;13.50;99.90;;;;;;4972573;28;20344;-83
2022/04/27 10:36:44;;;;;;;8.43;6.28;;;14.00;92.20;;;;;;4973045;28;20386;-87
2022/04/27 10:39:12;;;;;;;9.88;6.93;;;13.50;96.50;;;;;;4972622;28;20105;-87
2022/04/27 10:42:03;;;;;;;11.23;6.88;;;13.30;95.30;;;;;;4971471;28;20107;-87
2022/04/27 10:44:47;;;;;;;;;;;13.70;92.30;;;;;;4976074;28;20051;-87
2022/04/27 10:47:14;;;;;;;7.93;5.80;;;13.80;94.90;;;;;;4979463;28;19996;-82
2022/04/27 10:49:40;;;;;;;10.77;7.30;;;13.20;91.90;;;;;;4971233;28;20046;-82
2022/04/27 10:52:07;;;;;;;9.80;6.97;;;13.50;98.00;;;;;;4963289;28;20045;-87
2022/04/27 10:54:38;;;;;;;9.68;6.25;;;14.40;99.90;;;;;;4967330;28;20034;-87
2022/04/27 10:57:29;;;;;;;;;;;14.50;86.70;;;;;;4971223;28;20106;-82
2022/04/27 11:00:03;;;;;;;9.55;6.43;;;14.50;98.30;;;;;;4949333;28;19969;-85
2022/04/27 11:02:39;;;;;;;7.18;5.20;;;14.50;87.00;;;;;;4958766;28;20038;-85
2022/04/27 11:05:11;;;;;;;8.90;4.60;;;15.50;80.50;;;;;;4972131;28;20066;-85
2022/04/27 11:07:59;;;;;;;7.28;5.60;;;15.70;91.50;;;;;;4953513;28;20027;-87
2022/04/27 11:10:25;;;;;;;7.28;5.10;;;15.80;88.30;;;;;;4976416;28;20023;-88
2022/04/27 11:12:52;;;;;;;6.45;5.05;;;15.90;84.10;;;;;;4970154;28;20027;-87
2022/04/27 11:15:23;;;;;;;6.90;4.70;;;16.30;64.20;;;;;;4959682;28;20270;-88
2022/04/27 11:17:52;;;;;;;;;;;16.90;53.50;;;;;;4980134;28;20027;-86
2022/04/27 11:20:23;;;;;;;6.20;4.72;;;15.70;60.70;;;;;;4972519;28;20328;-86
2022/04/27 11:22:49;;;;;;;6.35;5.03;;;15.80;63.00;;;;;;4950095;28;20026;-87
2022/04/27 11:25:23;;;;;;;6.90;5.50;;;15.80;63.40;;;;;;4978586;28;20035;-86
2022/04/27 11:27:49;;;;;;;7.75;5.63;;;15.20;64.50;;;;;;4971901;28;20042;-87
2022/04/27 11:30:17;;;;;;;8.82;5.00;;;15.40;64.80;;;;;;4959381;28;20038;-86
2022/04/27 11:32:47;;;;;;;6.65;5.00;;;15.50;68.60;;;;;;4970979;28;20039;-87
2022/04/27 11:35:13;;;;;;;8.50;5.20;;;16.30;61.60;;;;;;4971167;28;20015;-87
2022/04/27 11:37:38;;;;;;;7.78;5.13;;;16.40;59.90;;;;;;4966072;28;20050;-87
2022/04/27 11:40:12;;;;;;;7.00;5.25;;;16.20;63.00;;;;;;4972541;28;20059;-83
2022/04/27 11:42:46;;;;;;;7.00;5.40;;;15.80;62.90;;;;;;4972395;28;20097;-84
2022/04/27 11:45:17;;;;;;;7.55;4.55;;;15.50;63.40;;;;;;4966637;28;20061;-84
2022/04/27 11:47:43;;;;;;;6.35;4.78;;;15.60;62.40;;;;;;4943730;29;20031;-84
2022/04/27 11:50:09;;;;;;;8.15;5.38;;;15.10;61.50;;;;;;4957579;28;20026;-83
2022/04/27 11:52:38;;;;;;;6.20;5.13;;;14.90;66.40;;;;;;4970449;28;20290;-86
2022/04/27 11:55:15;;;;;;;6.85;4.82;;;14.50;65.90;;;;;;4971042;28;20026;-86
2022/04/27 11:57:41;;;;;;;6.38;4.95;;;14.30;65.20;;;;;;4965934;28;20419;-86
2022/04/27 12:00:08;;;;;;;8.15;5.35;;;14.20;68.40;;;;;;4951985;28;20061;-85
2022/04/27 12:02:34;;;;;;;8.15;5.25;;;13.90;68.60;;;;;;4965371;28;20053;-86
2022/04/27 12:05:01;;;;;;;6.40;4.75;;;13.80;70.30;;;;;;4953241;28;20122;-86
2022/04/27 12:07:35;;;;;;;6.93;4.70;;;13.80;72.20;;;;;;4971201;28;20514;-86
2022/04/27 12:10:07;;;;;;;7.13;4.55;;;13.90;71.80;;;;;;4954657;28;20031;-87
2022/04/27 12:12:36;;;;;;;6.63;4.82;;;14.30;71.90;;;;;;4974898;28;20110;-85
2022/04/27 12:15:13;;;;;;;6.82;4.88;;;14.50;71.30;;;;;;4990235;28;20023;-85
2022/04/27 12:17:51;;;;;;;6.55;4.53;;;14.50;73.10;;;;;;4970130;28;20034;-85
2022/04/27 12:20:25;;;;;;;8.65;4.90;;;14.90;66.60;;;;;;4986862;28;20015;-87
2022/04/27 12:22:56;;;;;;;6.35;4.43;;;14.90;69.80;;;;;;4970906;28;20037;-86
2022/04/27 12:25:43;;;;;;;7.07;5.30;;;15.00;68.70;;;;;;4956216;28;20480;-87
2022/04/27 12:28:15;;;;;;;7.10;4.85;;;15.10;67.30;;;;;;4967554;28;20023;-87
2022/04/27 12:30:47;;;;;;;9.90;5.63;;;15.10;64.90;;;;;;4968360;28;20038;-87
2022/04/27 12:33:14;;;;;;;7.53;5.32;;;15.70;66.10;;;;;;4968251;28;20034;-86
2022/04/27 12:38:34;;;;;;;7.40;4.13;;;19.60;54.20;;;;;;4965059;28;20094;-87
2022/04/27 12:40:59;;;;;;;5.13;3.88;;;20.90;49.20;;;;;;4972138;28;20023;-87
2022/04/27 12:43:25;;;;;;;6.50;4.68;;;21.50;43.70;;;;;;4971045;28;20027;-82
2022/04/27 12:46:03;;;;;;;4.40;3.58;;;18.80;49.60;;;;;;4964597;28;20023;-82
2022/04/27 12:48:31;;;;;;;4.85;3.90;;;17.70;51.20;;;;;;4968538;28;20031;-82
2022/04/27 12:50:58;;;;;;;7.07;4.40;;;17.00;53.60;;;;;;4968776;28;20030;-82
2022/04/27 12:53:24;;;;;;;6.13;4.32;;;16.20;56.90;;;;;;4952649;28;20031;-82
2022/04/27 12:56:10;;;;;;;5.50;4.20;;;15.90;58.20;;;;;;4966326;28;20126;-82
2022/04/27 12:58:37;;;;;;;7.50;4.10;;;15.80;58.40;;;;;;4969739;28;20486;-84
2022/04/27 13:01:03;;;;;;;4.72;3.45;;;15.90;61.70;;;;;;4953530;28;20509;-83
2022/04/27 13:03:29;;;;;;;4.72;3.38;;;16.20;56.70;;;;;;4937481;28;20034;-84
2022/04/27 13:05:55;;;;;;;4.93;3.45;;;16.00;58.80;;;;;;4968452;28;20031;-84
2022/04/27 13:08:21;;;;;;;4.32;3.05;;;16.20;58.30;;;;;;4962571;28;20057;-84